Pleasant Hill, South Carolina
Current Conditions -  °F | °C
As of 6:55 AM on Sunday 21 Dec 2014 (Local Time) from KLKR Reporting Station
Moderate Rain Moderate Rain  
Wind Chill: 36°   Ceiling: 2900
Heat Index: 36°   Visibility: 3mi
Dew Point: 36°   Wind: 0mph
Humidity: 100%   Direction: NA
Pressure: 30.27"   Gusts: NA
Location:  34.5669°N, 80.7524°W
Report Text: KLKR 211155Z AUTO 00000KT 3SM RA BKN029 OVC045 02/02 A3027 RMK AO2
Loading
Personal Weather Stations






























Interactive Weather Map New forecast layout! Learn more

10-Day Weather Forecast

Advertisements
Track Severe Weather on mobile